createdAt,value
2023-04-24T00:02:29.610Z,15.25
2023-04-24T00:05:34.004Z,15.00
2023-04-24T00:08:38.082Z,11.00
2023-04-24T00:11:41.620Z,12.00
2023-04-24T00:14:44.946Z,7.50
2023-04-24T00:18:22.841Z,9.75
2023-04-24T00:21:26.914Z,14.50
2023-04-24T00:24:30.478Z,13.00
2023-04-24T00:27:33.803Z,12.00
2023-04-24T00:30:37.352Z,12.00
2023-04-24T00:33:44.083Z,10.00
2023-04-24T00:36:47.484Z,10.50
2023-04-24T00:39:50.840Z,11.75
2023-04-24T00:42:54.625Z,6.25
2023-04-24T00:46:02.806Z,12.25
2023-04-24T00:49:08.102Z,10.00
2023-04-24T00:52:11.892Z,9.67
2023-04-24T00:55:15.885Z,11.00
2023-04-24T00:58:19.420Z,9.25
2023-04-24T01:01:24.186Z,10.50
2023-04-24T01:04:29.688Z,13.00
2023-04-24T01:07:33.663Z,12.25
2023-04-24T01:10:41.145Z,10.00
2023-04-24T01:13:44.727Z,8.25
2023-04-24T01:16:48.251Z,6.75
2023-04-24T01:19:54.781Z,12.00
2023-04-24T01:22:59.891Z,9.75
2023-04-24T01:26:03.587Z,11.25
2023-04-24T01:29:07.130Z,10.00
2023-04-24T01:32:12.079Z,9.00
2023-04-24T01:35:16.627Z,11.50
2023-04-24T01:38:21.574Z,11.75
2023-04-24T01:41:25.762Z,13.00
2023-04-24T01:44:29.771Z,12.75
2023-04-24T01:47:33.973Z,12.00
2023-04-24T01:50:37.370Z,12.00
2023-04-24T01:53:42.302Z,12.75
2023-04-24T01:56:47.492Z,11.25
2023-04-24T01:59:50.988Z,15.25
2023-04-24T02:02:54.633Z,13.00
2023-04-24T02:05:58.083Z,14.75
2023-04-24T02:09:03.218Z,16.00
2023-04-24T02:12:06.726Z,10.00
2023-04-24T02:15:10.885Z,12.00
2023-04-24T02:18:14.519Z,12.00
2023-04-24T02:21:18.448Z,12.67
2023-04-24T02:24:23.453Z,14.25
2023-04-24T02:27:26.829Z,12.75
2023-04-24T02:30:30.678Z,13.25
2023-04-24T02:33:34.077Z,12.75
2023-04-24T02:36:37.431Z,16.00
2023-04-24T02:39:42.233Z,12.75
2023-04-24T02:42:45.857Z,14.33
2023-04-24T02:45:49.391Z,13.67
2023-04-24T02:48:52.852Z,13.00
2023-04-24T02:51:56.176Z,16.00
2023-04-24T02:55:01.019Z,13.00
2023-04-24T02:58:04.376Z,14.33
2023-04-24T03:01:07.919Z,13.67
2023-04-24T03:04:11.915Z,14.33
2023-04-24T03:07:15.476Z,10.33
2023-04-24T03:10:20.525Z,8.33
2023-04-24T03:13:25.272Z,7.00
2023-04-24T03:16:28.598Z,10.00
2023-04-24T03:19:32.475Z,7.33
2023-04-24T03:22:41.509Z,8.00
2023-04-24T03:25:46.912Z,10.00
2023-04-24T03:28:50.374Z,11.00
2023-04-24T03:31:54.181Z,10.67
2023-04-24T03:34:57.701Z,13.67
2023-04-24T03:38:01.205Z,16.33
2023-04-24T03:41:21.320Z,14.67
2023-04-24T03:44:31.996Z,15.00
2023-04-24T03:47:35.429Z,18.75
2023-04-24T03:50:41.094Z,15.00
2023-04-24T03:53:47.173Z,16.00
2023-04-24T03:56:56.071Z,14.33
2023-04-24T04:00:01.048Z,13.67
2023-04-24T04:03:04.786Z,16.00
2023-04-24T04:06:08.963Z,19.00
2023-04-24T04:09:12.533Z,14.00
2023-04-24T04:12:17.357Z,16.00
2023-04-24T04:15:20.760Z,16.00
2023-04-24T04:18:25.126Z,12.67
2023-04-24T04:21:29.059Z,13.33
2023-04-24T04:24:42.036Z,17.50
2023-04-24T04:27:48.927Z,15.00
2023-04-24T04:30:54.802Z,16.75
2023-04-24T04:34:00.063Z,15.00
2023-04-24T04:37:04.147Z,14.50
2023-04-24T04:40:36.844Z,9.75
2023-04-24T04:43:44.130Z,14.25
2023-04-24T04:46:48.598Z,16.25
2023-04-24T04:49:59.269Z,12.00
2023-04-24T04:53:04.919Z,14.50
2023-04-24T04:56:11.749Z,16.50
2023-04-24T04:59:21.183Z,14.50
2023-04-24T05:02:28.000Z,16.00
2023-04-24T05:05:32.047Z,17.75
2023-04-24T05:08:35.529Z,19.75
2023-04-24T05:11:40.089Z,11.75
2023-04-24T05:14:44.903Z,17.00
2023-04-24T05:17:49.212Z,13.50
2023-04-24T05:20:53.096Z,16.00
2023-04-24T05:23:57.247Z,15.00
2023-04-24T05:27:21.768Z,12.25
2023-04-24T05:30:27.629Z,15.00
2023-04-24T05:33:32.322Z,12.50
2023-04-24T05:36:35.817Z,14.00
2023-04-24T05:39:39.380Z,3.25
2023-04-24T05:42:42.699Z,14.50
2023-04-24T05:45:47.524Z,14.00
2023-04-24T05:48:51.010Z,13.25
2023-04-24T05:51:54.858Z,15.50
2023-04-24T05:54:58.950Z,13.00
2023-04-24T05:58:07.400Z,15.67
2023-04-24T06:01:15.639Z,10.00
2023-04-24T06:04:21.299Z,12.33
2023-04-24T06:07:24.866Z,13.33
2023-04-24T06:10:28.477Z,11.67
2023-04-24T06:13:32.159Z,12.67
2023-04-24T06:17:00.268Z,16.33
2023-04-24T06:20:13.960Z,11.67
2023-04-24T06:23:17.370Z,14.67
2023-04-24T06:26:21.088Z,13.33
2023-04-24T06:29:24.481Z,16.33
2023-04-24T06:32:29.899Z,12.33
2023-04-24T06:35:33.398Z,14.00
2023-04-24T06:38:36.836Z,12.67
2023-04-24T06:41:41.020Z,12.67
2023-04-24T06:44:52.086Z,9.67
2023-04-24T06:47:57.204Z,12.00
2023-04-24T06:51:00.492Z,10.00
2023-04-24T06:54:04.153Z,14.00
2023-04-24T06:57:07.707Z,8.67
2023-04-24T07:00:12.373Z,8.33
2023-04-24T07:03:17.079Z,11.67
2023-04-24T07:06:23.682Z,12.00
2023-04-24T07:09:28.608Z,11.00
2023-04-24T07:12:32.182Z,11.67
2023-04-24T07:15:35.924Z,15.00
2023-04-24T07:18:41.512Z,12.33
2023-04-24T07:21:44.985Z,12.33
2023-04-24T07:24:48.345Z,15.00
2023-04-24T07:27:51.709Z,11.00
2023-04-24T07:30:55.660Z,15.00
2023-04-24T07:34:00.424Z,12.00
2023-04-24T07:37:04.359Z,13.00
2023-04-24T07:40:09.139Z,11.00
2023-04-24T07:43:12.505Z,12.67
2023-04-24T07:46:15.946Z,8.00
2023-04-24T07:49:20.775Z,9.00
2023-04-24T07:52:24.235Z,15.00
2023-04-24T07:55:28.269Z,12.33
2023-04-24T07:58:32.177Z,9.33
2023-04-24T08:01:35.730Z,7.33
2023-04-24T08:04:41.003Z,11.00
2023-04-24T08:07:46.471Z,8.33
2023-04-24T08:10:50.209Z,9.67
2023-04-24T08:13:53.645Z,12.33
2023-04-24T08:17:04.747Z,11.67
2023-04-24T08:20:14.762Z,8.67
2023-04-24T08:23:18.728Z,6.00
2023-04-24T08:26:22.330Z,9.67
2023-04-24T08:29:25.910Z,7.33
2023-04-24T08:32:30.166Z,10.00
2023-04-24T08:35:35.019Z,12.00
2023-04-24T08:38:38.708Z,8.00
2023-04-24T08:41:44.365Z,10.00
2023-04-24T08:44:48.036Z,9.00
2023-04-24T08:47:52.261Z,9.00
2023-04-24T08:50:58.915Z,9.33
2023-04-24T08:54:04.022Z,10.00
2023-04-24T08:57:12.725Z,12.33
2023-04-24T09:00:17.191Z,8.00
2023-04-24T09:03:23.296Z,10.67
2023-04-24T09:06:28.882Z,12.33
2023-04-24T09:09:35.049Z,9.67
2023-04-24T09:12:38.681Z,7.67
2023-04-24T09:15:43.454Z,8.67
2023-04-24T09:18:46.780Z,12.33
2023-04-24T09:21:56.316Z,11.33
2023-04-24T09:25:06.754Z,10.00
2023-04-24T09:28:10.109Z,12.67
2023-04-24T09:31:15.942Z,11.33
2023-04-24T09:34:24.320Z,13.67
2023-04-24T09:37:32.808Z,10.00
2023-04-24T09:40:39.696Z,9.33
2023-04-24T09:43:44.818Z,10.67
2023-04-24T09:46:52.531Z,10.67
2023-04-24T09:50:00.116Z,10.00
2023-04-24T09:53:06.912Z,11.00
2023-04-24T09:56:13.538Z,11.67
2023-04-24T09:59:20.531Z,13.00
2023-04-24T10:02:23.983Z,12.33
2023-04-24T10:05:30.342Z,10.00
2023-04-24T10:08:38.714Z,10.33
2023-04-24T10:11:46.469Z,6.00
2023-04-24T10:14:50.677Z,10.67
2023-04-24T10:17:54.634Z,10.00
2023-04-24T10:20:59.736Z,10.67
2023-04-24T10:24:06.030Z,9.67
2023-04-24T10:27:11.491Z,10.67
2023-04-24T10:30:15.982Z,7.33
2023-04-24T10:33:20.391Z,11.33
2023-04-24T10:36:27.763Z,13.00
2023-04-24T10:39:34.636Z,10.67
2023-04-24T10:42:42.673Z,13.00
2023-04-24T10:46:03.806Z,11.00
2023-04-24T10:49:09.924Z,11.67
2023-04-24T10:52:13.363Z,12.33
2023-04-24T10:55:18.187Z,9.00
2023-04-24T10:58:25.650Z,10.33
2023-04-24T11:01:30.630Z,9.00
2023-04-24T11:04:36.453Z,11.67
2023-04-24T11:08:13.091Z,11.00
2023-04-24T11:11:19.235Z,11.33
2023-04-24T11:14:23.090Z,12.67
2023-04-24T11:17:31.696Z,7.00
2023-04-24T11:20:35.216Z,12.00
2023-04-24T11:23:39.338Z,13.00
2023-04-24T11:26:44.287Z,10.00
2023-04-24T11:29:50.064Z,9.67
2023-04-24T11:32:53.637Z,10.67
2023-04-24T11:35:57.348Z,5.00
2023-04-24T11:39:01.234Z,9.67
2023-04-24T11:42:08.272Z,11.00
2023-04-24T11:45:14.014Z,11.67
2023-04-24T11:48:22.600Z,9.00
2023-04-24T11:51:31.366Z,10.00
2023-04-24T11:54:40.455Z,7.33
2023-04-24T11:57:47.009Z,11.00
2023-04-24T12:00:58.959Z,5.67
2023-04-24T12:04:03.079Z,10.33
2023-04-24T12:07:07.235Z,8.33
2023-04-24T12:10:11.455Z,13.00
2023-04-24T12:13:16.352Z,8.00
2023-04-24T12:16:20.077Z,9.67
2023-04-24T12:19:24.307Z,10.67
2023-04-24T12:22:28.063Z,10.00
2023-04-24T12:25:33.398Z,13.00
2023-04-24T12:28:40.039Z,8.67
2023-04-24T12:31:43.499Z,6.00
2023-04-24T12:34:47.201Z,13.33
2023-04-24T12:37:50.779Z,9.00
2023-04-24T12:41:05.487Z,9.33
2023-04-24T12:44:14.174Z,12.00
2023-04-24T12:47:17.764Z,12.00
2023-04-24T12:50:21.346Z,11.33
2023-04-24T12:53:27.650Z,5.00
2023-04-24T12:56:31.795Z,12.33
2023-04-24T12:59:36.565Z,12.00
2023-04-24T13:02:40.171Z,6.00
2023-04-24T13:05:45.625Z,11.33
2023-04-24T13:08:49.749Z,10.67
2023-04-24T13:11:53.214Z,9.33
2023-04-24T13:14:58.436Z,8.00
2023-04-24T13:18:02.137Z,12.00
2023-04-24T13:21:05.659Z,10.33
2023-04-24T13:24:10.452Z,10.33
2023-04-24T13:27:14.045Z,13.33
2023-04-24T13:30:19.178Z,8.33
2023-04-24T13:33:22.608Z,10.33
2023-04-24T13:36:26.638Z,8.67
2023-04-24T13:39:31.162Z,10.67
2023-04-24T13:42:34.654Z,13.00
2023-04-24T13:45:39.744Z,12.67
2023-04-24T13:48:43.207Z,16.67
2023-04-24T13:51:46.882Z,12.33
2023-04-24T13:54:50.578Z,9.00
2023-04-24T13:57:56.164Z,13.00
2023-04-24T14:01:01.164Z,13.00
2023-04-24T14:04:05.047Z,13.00
2023-04-24T14:07:09.990Z,15.00
2023-04-24T14:10:13.254Z,13.00
2023-04-24T14:13:16.961Z,14.67
2023-04-24T14:16:21.772Z,9.00
2023-04-24T14:19:25.208Z,9.00
2023-04-24T14:22:28.639Z,8.33
2023-04-24T14:25:32.584Z,12.00
2023-04-24T14:28:36.237Z,13.00
2023-04-24T14:31:41.094Z,12.67
2023-04-24T14:34:44.524Z,11.67
2023-04-24T14:37:49.473Z,14.33
2023-04-24T14:41:06.344Z,11.33
2023-04-24T14:44:10.680Z,16.00
2023-04-24T14:47:15.438Z,15.00
2023-04-24T14:50:19.250Z,16.00
2023-04-24T14:53:23.127Z,11.00
2023-04-24T14:56:26.480Z,12.00
2023-04-24T14:59:30.251Z,14.00
2023-04-24T15:02:35.273Z,16.00
2023-04-24T15:05:39.310Z,15.00
2023-04-24T15:08:43.140Z,12.00
2023-04-24T15:11:46.580Z,11.67
2023-04-24T15:14:49.968Z,17.00
2023-04-24T15:17:54.701Z,10.33
2023-04-24T15:20:58.383Z,15.00
2023-04-24T15:24:01.798Z,14.00
2023-04-24T15:27:05.326Z,11.67
2023-04-24T15:30:10.568Z,17.00
2023-04-24T15:33:15.726Z,15.00
2023-04-24T15:36:19.802Z,17.00
2023-04-24T15:39:25.788Z,18.33
2023-04-24T15:42:31.962Z,17.67
2023-04-24T15:45:36.404Z,9.67
2023-04-24T15:48:42.302Z,15.00
2023-04-24T15:51:45.818Z,19.33
2023-04-24T15:54:49.323Z,14.00
2023-04-24T15:57:52.734Z,20.00
2023-04-24T16:00:56.456Z,18.00
2023-04-24T16:04:01.702Z,12.33
2023-04-24T16:07:05.668Z,11.00
2023-04-24T16:10:09.823Z,15.00
2023-04-24T16:13:13.219Z,16.00
2023-04-24T16:16:16.911Z,13.67
2023-04-24T16:19:21.710Z,15.25
2023-04-24T16:22:25.301Z,21.50
2023-04-24T16:25:29.121Z,29.50
2023-04-24T16:28:32.449Z,23.00
2023-04-24T16:31:35.954Z,28.50
2023-04-24T16:34:40.818Z,24.50
2023-04-24T16:37:44.151Z,50.75
2023-04-24T16:40:47.473Z,29.25
2023-04-24T16:43:50.857Z,18.50
2023-04-24T16:46:54.375Z,21.00
2023-04-24T16:49:59.248Z,22.50
2023-04-24T16:53:02.690Z,27.50
2023-04-24T16:56:06.531Z,30.50
2023-04-24T16:59:09.954Z,20.75
2023-04-24T17:02:13.395Z,14.00
2023-04-24T17:05:19.501Z,22.75
2023-04-24T17:08:23.884Z,21.75
2023-04-24T17:11:28.413Z,24.25
2023-04-24T17:14:32.650Z,27.50
2023-04-24T17:17:36.451Z,25.25
2023-04-24T17:20:41.294Z,18.00
2023-04-24T17:23:44.775Z,17.75
2023-04-24T17:26:50.077Z,24.50
2023-04-24T17:29:54.071Z,27.50
2023-04-24T17:32:57.502Z,30.00
2023-04-24T17:36:02.504Z,24.00
2023-04-24T17:39:05.942Z,21.75
2023-04-24T17:42:09.334Z,20.00
2023-04-24T17:45:13.567Z,21.00
2023-04-24T17:48:17.688Z,13.00
2023-04-24T17:51:22.585Z,21.25
2023-04-24T17:54:25.973Z,9.00
2023-04-24T17:57:29.305Z,19.00
2023-04-24T18:00:33.938Z,18.25
2023-04-24T18:03:38.570Z,16.50
2023-04-24T18:06:43.536Z,16.00
2023-04-24T18:09:46.874Z,12.50
2023-04-24T18:12:50.610Z,18.50
2023-04-24T18:15:54.013Z,19.25
2023-04-24T18:18:57.427Z,31.00
2023-04-24T18:22:02.545Z,18.75
2023-04-24T18:25:06.605Z,12.25
2023-04-24T18:28:10.041Z,15.50
2023-04-24T18:31:13.613Z,8.50
2023-04-24T18:34:17.235Z,14.75
2023-04-24T18:37:21.971Z,13.50
2023-04-24T18:40:25.500Z,15.50
2023-04-24T18:43:28.935Z,11.50
2023-04-24T18:46:38.018Z,6.50
2023-04-24T18:49:41.432Z,6.00
2023-04-24T18:52:46.766Z,4.00
2023-04-24T18:55:50.084Z,3.00
2023-04-24T18:58:55.327Z,4.50
2023-04-24T19:01:59.061Z,6.00
2023-04-24T19:05:02.582Z,5.75
2023-04-24T19:08:07.374Z,4.25
2023-04-24T19:11:13.455Z,4.00
2023-04-24T19:14:16.941Z,3.00
2023-04-24T19:17:23.666Z,3.75
2023-04-24T19:20:28.167Z,3.00
2023-04-24T19:23:36.641Z,3.25
2023-04-24T19:26:41.462Z,1.00
2023-04-24T19:29:45.084Z,1.00
2023-04-24T19:32:48.597Z,4.00
2023-04-24T19:35:52.267Z,3.00
2023-04-24T19:38:57.167Z,0.00
2023-04-24T19:42:01.256Z,6.00
2023-04-24T19:45:04.932Z,2.50
2023-04-24T19:48:09.978Z,1.00
2023-04-24T19:51:13.436Z,1.00
2023-04-24T19:54:20.443Z,1.00
2023-04-24T19:57:24.084Z,1.00
2023-04-24T20:00:27.490Z,0.75
2023-04-24T20:03:34.557Z,2.50
2023-04-24T20:06:38.536Z,0.00
2023-04-24T20:09:43.479Z,1.00
2023-04-24T20:12:48.027Z,0.50
2023-04-24T20:15:51.450Z,1.50
2023-04-24T20:18:54.839Z,0.00
2023-04-24T20:21:58.224Z,3.00
2023-04-24T20:25:03.415Z,2.00
2023-04-24T20:28:07.239Z,1.00
2023-04-24T20:31:10.806Z,0.25
2023-04-24T20:34:16.774Z,1.00
2023-04-24T20:37:20.919Z,0.50
2023-04-24T20:40:25.841Z,1.00
2023-04-24T20:43:29.602Z,1.00
2023-04-24T20:46:33.556Z,0.25
2023-04-24T20:49:37.045Z,2.50
2023-04-24T20:52:40.542Z,1.00
2023-04-24T20:55:45.499Z,0.75
2023-04-24T20:58:49.758Z,4.00
2023-04-24T21:01:53.489Z,3.25
2023-04-24T21:04:56.945Z,20.00
2023-04-24T21:08:00.418Z,4.00
2023-04-24T21:11:05.424Z,3.50
2023-04-24T21:14:08.957Z,3.75
2023-04-24T21:17:13.012Z,4.00
2023-04-24T21:20:16.694Z,3.25
2023-04-24T21:23:20.182Z,6.00
2023-04-24T21:26:25.610Z,4.50
2023-04-24T21:29:29.104Z,6.00
2023-04-24T21:32:32.714Z,4.00
2023-04-24T21:35:36.279Z,6.00
2023-04-24T21:38:40.310Z,1.00
2023-04-24T21:41:45.645Z,8.50
2023-04-24T21:44:49.089Z,2.00
2023-04-24T21:47:53.007Z,6.50
2023-04-24T21:50:57.168Z,8.00
2023-04-24T21:54:01.238Z,5.50
2023-04-24T21:57:09.646Z,7.00
2023-04-24T22:00:15.098Z,3.25
2023-04-24T22:03:18.781Z,6.00
2023-04-24T22:06:23.443Z,5.00
2023-04-24T22:09:27.803Z,6.00
2023-04-24T22:12:38.966Z,1.50
2023-04-24T22:15:42.367Z,5.50
2023-04-24T22:18:47.758Z,0.50
2023-04-24T22:21:51.685Z,4.50
2023-04-24T22:24:55.805Z,5.50
2023-04-24T22:28:00.676Z,8.25
2023-04-24T22:31:04.204Z,6.25
2023-04-24T22:34:07.601Z,3.00
2023-04-24T22:37:10.983Z,6.00
2023-04-24T22:40:14.934Z,6.75
2023-04-24T22:43:20.038Z,6.75
2023-04-24T22:46:25.136Z,8.00
2023-04-24T22:49:28.651Z,6.25
2023-04-24T22:52:32.640Z,8.50
2023-04-24T22:55:37.051Z,7.00
2023-04-24T22:58:42.274Z,7.50
2023-04-24T23:01:45.950Z,7.00
2023-04-24T23:04:49.582Z,6.50
2023-04-24T23:07:53.169Z,6.25
2023-04-24T23:10:56.813Z,10.50
2023-04-24T23:14:01.499Z,7.00
2023-04-24T23:17:05.113Z,8.50
2023-04-24T23:20:10.349Z,8.00
2023-04-24T23:23:14.049Z,9.00
2023-04-24T23:26:17.735Z,10.50
2023-04-24T23:29:23.298Z,10.00
2023-04-24T23:32:26.983Z,9.75
2023-04-24T23:35:31.001Z,10.00
2023-04-24T23:38:43.227Z,9.00
2023-04-24T23:41:53.821Z,8.00
2023-04-24T23:44:58.615Z,9.00
2023-04-24T23:48:02.200Z,5.00
2023-04-24T23:51:06.369Z,7.50
2023-04-24T23:54:10.000Z,6.25
2023-04-24T23:57:13.495Z,10.25
